createdAt,value
2019-05-13T00:02:10.719Z,48.10
2019-05-13T00:07:17.069Z,48.10
2019-05-13T00:12:23.974Z,48.10
2019-05-13T00:17:30.309Z,48.10
2019-05-13T00:22:36.441Z,48.00
2019-05-13T00:27:44.532Z,47.80
2019-05-13T00:32:51.274Z,47.90
2019-05-13T00:37:57.160Z,47.90
2019-05-13T00:43:04.078Z,47.80
2019-05-13T00:48:10.551Z,47.70
2019-05-13T00:53:16.759Z,47.70
2019-05-13T00:58:24.178Z,47.70
2019-05-13T01:03:33.980Z,47.50
2019-05-13T01:08:40.623Z,47.70
2019-05-13T01:13:47.191Z,47.70
2019-05-13T01:18:53.903Z,47.70
2019-05-13T01:24:00.641Z,47.40
2019-05-13T01:29:06.891Z,47.30
2019-05-13T01:34:14.301Z,47.40
2019-05-13T01:39:20.582Z,47.30
2019-05-13T01:44:26.242Z,47.30
2019-05-13T01:49:33.734Z,47.30
2019-05-13T01:54:39.901Z,47.20
2019-05-13T01:59:47.671Z,47.20
2019-05-13T02:04:54.071Z,47.20
2019-05-13T02:10:00.730Z,47.10
2019-05-13T02:15:06.650Z,47.00
2019-05-13T02:20:14.845Z,46.90
2019-05-13T02:25:20.490Z,47.10
2019-05-13T02:30:26.885Z,47.70
2019-05-13T02:35:33.841Z,46.90
2019-05-13T02:40:42.911Z,46.90
2019-05-13T02:45:48.510Z,46.80
2019-05-13T02:50:55.032Z,46.90
2019-05-13T02:56:03.071Z,47.10
2019-05-13T03:01:12.310Z,47.20
2019-05-13T03:06:17.449Z,47.20
2019-05-13T03:11:24.020Z,47.20
2019-05-13T03:17:03.395Z,47.10
2019-05-13T03:22:13.508Z,47.20
2019-05-13T03:27:20.450Z,47.20
2019-05-13T03:32:37.735Z,47.20
2019-05-13T03:37:36.399Z,47.20
2019-05-13T03:42:42.612Z,47.10
2019-05-13T03:47:52.544Z,47.10
2019-05-13T03:52:56.730Z,47.10
2019-05-13T03:58:03.198Z,47.10
2019-05-13T04:03:13.207Z,47.10
2019-05-13T04:08:17.889Z,47.10
2019-05-13T04:13:26.031Z,47.70
2019-05-13T04:18:32.274Z,47.10
2019-05-13T04:23:37.951Z,47.10
2019-05-13T04:28:44.106Z,47.10
2019-05-13T04:33:53.162Z,47.10
2019-05-13T04:38:58.839Z,47.80
2019-05-13T04:44:05.289Z,47.80
2019-05-13T04:49:12.554Z,47.10
2019-05-13T04:54:18.250Z,47.10
2019-05-13T04:59:24.050Z,47.10
2019-05-13T05:04:47.930Z,47.10
2019-05-13T05:10:30.242Z,47.10
2019-05-13T05:16:05.470Z,47.10
2019-05-13T05:21:18.599Z,47.10
2019-05-13T05:27:05.259Z,47.10
2019-05-13T05:32:41.807Z,46.90
2019-05-13T05:38:13.979Z,47.00
2019-05-13T05:43:22.279Z,47.00
2019-05-13T05:48:28.189Z,47.10
2019-05-13T05:53:34.640Z,47.10
2019-05-13T05:58:42.370Z,47.70
2019-05-13T06:03:52.024Z,47.10
2019-05-13T06:08:58.539Z,47.10
2019-05-13T06:14:07.859Z,47.10
2019-05-13T06:19:17.580Z,47.20
2019-05-13T06:24:26.194Z,47.40
2019-05-13T06:29:31.816Z,47.20
2019-05-13T06:34:41.375Z,45.60
2019-05-13T06:39:47.059Z,46.00
2019-05-13T06:44:53.280Z,46.60
2019-05-13T06:50:02.496Z,47.50
2019-05-13T06:55:07.629Z,46.60
2019-05-13T07:00:13.970Z,46.80
2019-05-13T07:05:22.432Z,46.90
2019-05-13T07:10:27.390Z,47.60
2019-05-13T07:15:33.419Z,47.00
2019-05-13T07:20:39.130Z,47.60
2019-05-13T07:25:45.459Z,47.00
2019-05-13T07:30:51.646Z,46.90
2019-05-13T07:35:58.821Z,46.90
2019-05-13T07:41:06.646Z,37.10
2019-05-13T07:46:12.585Z,40.80
2019-05-13T07:51:18.890Z,43.10
2019-05-13T07:56:24.809Z,43.90
2019-05-13T08:01:32.723Z,40.90
2019-05-13T08:06:38.059Z,43.30
2019-05-13T08:11:59.863Z,44.20
2019-05-13T08:16:51.901Z,36.70
2019-05-13T08:21:57.729Z,35.50
2019-05-13T08:27:03.995Z,37.40
2019-05-13T08:32:11.317Z,41.10
2019-05-13T08:37:17.809Z,40.60
2019-05-13T08:42:23.703Z,42.80
2019-05-13T08:47:31.374Z,43.50
2019-05-13T08:52:38.740Z,44.00
2019-05-13T08:57:44.051Z,44.40
2019-05-13T09:02:52.220Z,44.80
2019-05-13T09:07:57.700Z,45.40
2019-05-13T09:13:03.940Z,46.00
2019-05-13T09:18:11.441Z,46.50
2019-05-13T09:23:17.452Z,46.10
2019-05-13T09:28:23.589Z,43.30
2019-05-13T09:33:29.469Z,43.90
2019-05-13T09:38:35.160Z,42.40
2019-05-13T09:43:42.020Z,44.20
2019-05-13T09:48:48.342Z,44.90
2019-05-13T09:53:53.539Z,45.30
2019-05-13T09:59:01.537Z,45.70
2019-05-13T10:04:06.348Z,45.70
2019-05-13T10:09:12.771Z,45.70
2019-05-13T10:14:18.499Z,45.70
2019-05-13T10:19:24.169Z,45.90
2019-05-13T10:24:32.807Z,46.00
2019-05-13T10:29:38.891Z,46.10
2019-05-13T10:34:45.829Z,46.10
2019-05-13T10:39:52.989Z,45.50
2019-05-13T10:45:01.822Z,46.30
2019-05-13T10:50:08.260Z,44.00
2019-05-13T10:55:14.784Z,45.10
2019-05-13T11:00:23.840Z,45.40
2019-05-13T11:05:32.573Z,45.50
2019-05-13T11:10:41.942Z,46.30
2019-05-13T11:15:46.450Z,45.70
2019-05-13T11:20:53.051Z,46.00
2019-05-13T11:25:59.429Z,45.70
2019-05-13T11:31:05.480Z,45.10
2019-05-13T11:36:15.984Z,45.30
2019-05-13T11:41:22.594Z,45.60
2019-05-13T11:46:27.559Z,45.50
2019-05-13T11:51:36.379Z,45.50
2019-05-13T11:56:49.400Z,45.30
2019-05-13T12:01:53.782Z,45.20
2019-05-13T12:06:59.087Z,41.40
2019-05-13T12:12:05.169Z,41.70
2019-05-13T12:17:14.114Z,44.00
2019-05-13T12:22:17.918Z,45.00
2019-05-13T12:27:24.099Z,45.30
2019-05-13T12:32:32.198Z,45.10
2019-05-13T12:37:37.509Z,45.20
2019-05-13T12:42:47.039Z,45.00
2019-05-13T12:47:53.194Z,44.90
2019-05-13T12:53:02.482Z,44.80
2019-05-13T12:58:06.811Z,45.00
2019-05-13T13:03:13.534Z,45.10
2019-05-13T13:08:38.396Z,44.90
2019-05-13T13:13:56.182Z,44.80
2019-05-13T13:18:35.769Z,45.10
2019-05-13T13:23:42.904Z,45.10
2019-05-13T13:28:55.110Z,45.10
2019-05-13T13:34:08.168Z,45.20
2019-05-13T13:39:07.179Z,45.60
2019-05-13T13:44:12.909Z,45.60
2019-05-13T13:49:22.722Z,45.70
2019-05-13T13:54:26.799Z,45.90
2019-05-13T13:59:35.897Z,46.00
2019-05-13T14:04:42.867Z,45.90
2019-05-13T14:09:47.472Z,45.90
2019-05-13T14:14:53.184Z,45.90
2019-05-13T14:19:59.099Z,44.50
2019-05-13T14:25:05.089Z,45.00
2019-05-13T14:30:11.852Z,45.10
2019-05-13T14:35:17.989Z,45.30
2019-05-13T14:40:24.751Z,45.40
2019-05-13T14:45:31.799Z,45.30
2019-05-13T14:50:38.423Z,45.40
2019-05-13T14:55:45.250Z,45.40
2019-05-13T15:01:10.352Z,45.50
2019-05-13T15:06:01.376Z,45.50
2019-05-13T15:11:07.407Z,45.50
2019-05-13T15:16:13.719Z,45.60
2019-05-13T15:21:21.343Z,45.60
2019-05-13T15:26:27.341Z,45.60
2019-05-13T15:31:32.954Z,45.60
2019-05-13T15:36:38.680Z,45.60
2019-05-13T15:41:45.090Z,45.70
2019-05-13T15:46:52.411Z,45.70
2019-05-13T15:51:58.569Z,45.70
2019-05-13T15:57:05.993Z,45.70
2019-05-13T16:02:11.956Z,45.60
2019-05-13T16:07:17.909Z,45.60
2019-05-13T16:12:23.908Z,45.70
2019-05-13T16:17:40.462Z,45.60
2019-05-13T16:22:38.480Z,45.70
2019-05-13T16:27:43.946Z,45.70
2019-05-13T16:32:51.935Z,44.60
2019-05-13T16:37:56.849Z,44.70
2019-05-13T16:43:02.780Z,45.00
2019-05-13T16:48:09.279Z,45.30
2019-05-13T16:53:15.826Z,45.40
2019-05-13T16:58:25.095Z,45.40
2019-05-13T17:03:31.887Z,45.60
2019-05-13T17:08:46.843Z,45.70
2019-05-13T17:14:05.877Z,45.80
2019-05-13T17:19:12.237Z,46.00
2019-05-13T17:24:19.142Z,45.80
2019-05-13T17:29:26.342Z,45.70
2019-05-13T17:34:32.072Z,45.80
2019-05-13T17:39:38.179Z,45.70
2019-05-13T17:44:46.252Z,45.80
2019-05-13T17:49:52.555Z,45.70
2019-05-13T17:55:00.955Z,45.70
2019-05-13T18:00:07.493Z,45.50
2019-05-13T18:05:13.145Z,45.30
2019-05-13T18:10:19.310Z,45.40
2019-05-13T18:15:26.049Z,45.40
2019-05-13T18:20:33.197Z,45.20
2019-05-13T18:25:51.466Z,45.30
2019-05-13T18:31:06.226Z,45.30
2019-05-13T18:36:28.010Z,45.40
2019-05-13T18:41:51.329Z,45.30
2019-05-13T18:47:11.299Z,45.40
2019-05-13T18:52:27.167Z,45.40
2019-05-13T18:57:32.749Z,45.40
2019-05-13T19:02:41.318Z,45.40
2019-05-13T19:07:47.489Z,45.70
2019-05-13T19:12:54.069Z,45.30
2019-05-13T19:18:00.139Z,45.40
2019-05-13T19:23:07.019Z,45.40
2019-05-13T19:28:14.109Z,45.40
2019-05-13T19:33:22.081Z,45.30
2019-05-13T19:38:31.858Z,45.30
2019-05-13T19:43:38.629Z,45.20
2019-05-13T19:48:45.039Z,45.20
2019-05-13T19:53:51.726Z,45.10
2019-05-13T19:58:58.511Z,45.10
2019-05-13T20:04:17.429Z,45.10
2019-05-13T20:09:25.859Z,45.20
2019-05-13T20:14:35.096Z,45.20
2019-05-13T20:19:50.101Z,45.20
2019-05-13T20:24:51.439Z,45.90
2019-05-13T20:29:57.950Z,45.40
2019-05-13T20:35:05.079Z,45.40
2019-05-13T20:40:11.715Z,45.60
2019-05-13T20:45:18.799Z,45.50
2019-05-13T20:50:26.594Z,45.50
2019-05-13T20:55:33.239Z,45.50
2019-05-13T21:00:39.439Z,45.40
2019-05-13T21:05:45.189Z,45.40
2019-05-13T21:10:51.771Z,45.40
2019-05-13T21:15:58.169Z,45.50
2019-05-13T21:21:04.999Z,45.40
2019-05-13T21:26:15.005Z,45.40
2019-05-13T21:31:18.949Z,45.40
2019-05-13T21:36:24.989Z,45.40
2019-05-13T21:41:34.025Z,45.40
2019-05-13T21:46:43.350Z,45.40
2019-05-13T21:51:49.501Z,45.40
2019-05-13T21:56:56.159Z,45.50
2019-05-13T22:02:02.711Z,45.60
2019-05-13T22:07:09.109Z,45.70
2019-05-13T22:12:15.461Z,45.90
2019-05-13T22:17:21.368Z,45.90
2019-05-13T22:22:27.869Z,45.90
2019-05-13T22:27:34.249Z,45.90
2019-05-13T22:32:41.785Z,45.90
2019-05-13T22:37:51.059Z,46.00
2019-05-13T22:42:57.004Z,46.00
2019-05-13T22:48:03.479Z,46.10
2019-05-13T22:53:11.837Z,46.00
2019-05-13T22:58:18.898Z,46.10
2019-05-13T23:03:24.789Z,46.10
2019-05-13T23:08:32.330Z,46.10
2019-05-13T23:13:37.230Z,46.20
2019-05-13T23:18:43.765Z,46.20
2019-05-13T23:23:51.503Z,46.30
2019-05-13T23:28:57.461Z,46.30
2019-05-13T23:34:03.300Z,46.20
2019-05-13T23:39:11.477Z,46.30
2019-05-13T23:44:25.049Z,46.30
2019-05-13T23:49:24.776Z,46.30
2019-05-13T23:54:33.029Z,46.30
2019-05-13T23:59:41.951Z,46.30
